Time;durP1;ratioP1;P1;durP2;ratioP2;P2;SDS_P1;SDS_P2;PMS_P1;PMS_P2;Temp;Humidity;BMP_temperature;BMP_pressure;BME280_temperature;BME280_humidity;BME280_pressure;Samples;Min_cycle;Max_cycle;Signal;HPM_P1;HPM_P2
2023/06/21 07:23:07;;;;;;;16.98;15.48;;;;;;;-145.79;77.67;76815.63;5334635;27;20129;-82
2023/06/21 07:25:38;;;;;;;14.82;13.30;;;;;;;-145.79;76.43;76805.00;5315313;28;20040;-85
2023/06/21 07:28:10;;;;;;;15.80;14.32;;;;;;;-145.79;76.62;76798.66;5312306;28;20112;-80
2023/06/21 07:30:50;;;;;;;14.43;13.02;;;;;;;-145.79;76.05;76783.81;5293924;28;20040;-80
2023/06/21 07:33:22;;;;;;;15.25;13.95;;;;;;;-145.79;76.39;76779.59;5295981;28;20028;-79
2023/06/21 07:35:53;;;;;;;14.43;13.13;;;;;;;-145.79;76.46;76773.22;5283162;28;20110;-78
2023/06/21 07:38:24;;;;;;;12.30;11.13;;;;;;;-145.79;73.21;76800.78;5279040;28;20033;-78
2023/06/21 07:40:56;;;;;;;13.30;12.05;;;;;;;-145.79;73.67;76817.72;5280023;28;20380;-76
2023/06/21 07:43:27;;;;;;;12.27;11.18;;;;;;;-145.79;74.33;76800.78;5279839;28;20106;-78
2023/06/21 07:45:58;;;;;;;11.52;10.45;;;;;;;-145.79;72.61;76783.81;5288935;28;20050;-79
2023/06/21 07:48:30;;;;;;;10.82;9.85;;;;;;;-145.79;72.28;76758.38;5301798;28;20028;-78
2023/06/21 07:51:04;;;;;;;10.38;9.45;;;;;;;-145.79;70.48;76747.78;5301040;28;20114;-76
2023/06/21 07:53:35;;;;;;;11.32;10.38;;;;;;;-145.79;70.83;76741.44;5299900;28;20491;-77
2023/06/21 07:56:06;;;;;;;10.68;9.77;;;;;;;-145.79;69.71;76745.69;5291424;28;20102;-78
2023/06/21 07:58:42;;;;;;;12.30;11.20;;;;;;;-145.79;70.46;76728.72;5280078;28;20079;-79
2023/06/21 08:01:13;;;;;;;12.23;11.23;;;;;;;-145.79;70.40;76735.06;5278599;28;20491;-78
2023/06/21 08:03:45;;;;;;;12.75;11.45;;;;;;;-145.79;70.67;76739.31;5280294;28;20028;-77
2023/06/21 08:06:16;;;;;;;15.85;14.50;;;;;;;-145.79;69.55;76732.97;5278502;28;20104;-76
2023/06/21 08:08:47;;;;;;;10.63;9.73;;;;;;;-145.79;68.92;76711.75;5279468;28;20064;-77
2023/06/21 08:11:19;;;;;;;10.98;10.02;;;;;;;-145.79;67.12;76720.25;5279328;28;20403;-78
2023/06/21 08:13:50;;;;;;;9.73;8.93;;;;;;;-145.79;68.31;76709.66;5279414;28;20029;-78
2023/06/21 08:16:22;;;;;;;9.18;8.38;;;;;;;-145.79;66.57;76711.75;5279273;28;20066;-78
2023/06/21 08:18:53;;;;;;;8.35;7.60;;;;;;;-145.79;64.36;76707.53;5279329;28;20021;-78
2023/06/21 08:21:24;;;;;;;8.90;8.10;;;;;;;-145.79;64.07;76690.56;5306618;28;20036;-79
2023/06/21 08:23:56;;;;;;;8.68;7.88;;;;;;;-145.79;63.78;76679.97;5322150;28;20049;-79
2023/06/21 08:26:27;;;;;;;6.57;6.03;;;;;;;-145.79;60.82;76690.56;5321806;28;20555;-79
2023/06/21 08:28:58;;;;;;;8.52;7.72;;;;;;;-145.79;60.94;76701.16;5319699;28;20445;-80
2023/06/21 08:31:30;;;;;;;8.57;7.78;;;;;;;-145.79;61.72;76690.56;5321301;28;20019;-78
2023/06/21 08:34:02;;;;;;;8.88;8.07;;;;;;;-145.79;61.93;76692.69;5309648;28;20059;-77
2023/06/21 08:36:33;;;;;;;8.05;7.45;;;;;;;-145.79;62.19;76679.97;5305077;28;20052;-78
2023/06/21 08:39:04;;;;;;;8.55;7.85;;;;;;;-145.79;62.45;76652.44;5307197;28;20067;-77
2023/06/21 08:41:38;;;;;;;8.32;7.55;;;;;;;-145.79;61.86;76639.72;5305353;28;20510;-79
2023/06/21 08:44:10;;;;;;;8.90;7.97;;;;;;;-145.79;61.47;76631.22;5307151;28;20460;-77
2023/06/21 08:46:42;;;;;;;7.10;6.40;;;;;;;-145.79;59.74;76631.22;5286216;28;20031;-79
2023/06/21 08:49:17;;;;;;;7.45;6.85;;;;;;;-145.79;60.13;76612.16;5286088;28;20040;-79
2023/06/21 08:51:50;;;;;;;7.72;7.03;;;;;;;-145.79;59.74;76603.69;5286302;28;20060;-76
2023/06/21 08:54:29;;;;;;;7.38;6.75;;;;;;;-145.79;60.33;76593.09;5298378;28;20051;-75
2023/06/21 08:57:09;;;;;;;7.75;7.10;;;;;;;-145.79;60.01;76601.56;5306828;28;20505;-80
2023/06/21 08:59:49;;;;;;;8.02;6.32;;;;;;;-145.79;59.64;76576.13;5306943;28;20024;-78
2023/06/21 09:02:47;;;;;;;7.65;6.95;;;;;;;-145.79;59.38;76559.19;5306928;28;20040;-75
2023/06/21 09:05:32;;;;;;;5.45;3.97;;;;;;;-145.79;53.88;76563.41;5306969;28;20024;-80
2023/06/21 09:08:07;;;;;;;7.67;4.80;;;;;;;-145.79;54.63;76599.44;5306366;28;20028;-79
2023/06/21 09:10:40;;;;;;;5.97;5.47;;;;;;;-145.79;56.71;76601.56;5298209;28;20283;-78
2023/06/21 09:13:12;;;;;;;7.20;5.28;;;;;;;-145.79;57.79;76561.28;5285262;28;20030;-77
2023/06/21 09:15:45;;;;;;;3.75;3.35;;;;;;;-145.79;53.96;76554.94;5285758;28;20025;-80
2023/06/21 09:18:18;;;;;;;5.25;3.97;;;;;;;-145.79;53.99;76546.47;5284389;28;20039;-79
2023/06/21 09:20:50;;;;;;;5.25;4.55;;;;;;;-145.79;53.62;76567.66;5285061;28;20044;-79
2023/06/21 09:23:32;;;;;;;4.60;4.20;;;;;;;-145.79;54.00;76561.28;5285423;28;20102;-80
2023/06/21 09:26:04;;;;;;;4.03;3.63;;;;;;;-145.79;53.70;76571.91;5284650;28;20035;-79
2023/06/21 09:28:38;;;;;;;3.85;3.55;;;;;;;-145.79;53.82;76569.78;5285532;28;20029;-77
2023/06/21 09:31:12;;;;;;;4.50;3.05;;;;;;;-145.79;54.19;76531.63;5284044;28;20029;-78
2023/06/21 09:33:48;;;;;;;4.95;3.67;;;;;;;-145.79;53.27;76521.03;5284618;28;20064;-78
2023/06/21 09:36:19;;;;;;;4.18;3.08;;;;;;;-145.79;50.82;76516.78;5285022;28;20099;-80
2023/06/21 09:38:50;;;;;;;3.03;2.72;;;;;;;-145.79;50.01;76525.28;5284332;28;20151;-81
2023/06/21 09:41:22;;;;;;;3.35;3.03;;;;;;;-145.79;50.74;76504.09;5304142;28;20028;-78
2023/06/21 09:43:53;;;;;;;4.50;3.60;;;;;;;-145.79;50.70;76497.72;5305438;28;20352;-80
2023/06/21 09:46:25;;;;;;;4.88;4.40;;;;;;;-145.79;50.83;76542.22;5283175;28;20096;-81
2023/06/21 09:49:09;;;;;;;4.25;3.85;;;;;;;-145.79;51.66;76533.75;5284411;28;20474;-80
2023/06/21 09:51:43;;;;;;;4.88;4.45;;;;;;;-145.79;52.39;76544.34;5285922;28;20433;-82
2023/06/21 09:54:14;;;;;;;5.03;4.50;;;;;;;-145.79;52.89;76527.38;5284276;28;20035;-82
2023/06/21 09:56:45;;;;;;;4.63;4.03;;;;;;;-145.79;52.75;76512.56;5285013;28;20410;-82
2023/06/21 09:59:19;;;;;;;5.50;5.00;;;;;;;-145.79;51.33;76548.59;5283725;28;20031;-82
2023/06/21 10:01:53;;;;;;;3.92;3.63;;;;;;;-145.79;51.52;76554.94;5284645;28;20036;-79
2023/06/21 10:04:24;;;;;;;5.63;4.82;;;;;;;-145.79;51.46;76512.56;5284368;28;20541;-79
2023/06/21 10:06:56;;;;;;;20.35;18.63;;;;;;;-145.79;49.45;76514.69;5283761;28;20032;-80
2023/06/21 10:09:35;;;;;;;4.93;4.45;;;;;;;-145.79;49.96;76521.03;5284430;28;20075;-81
2023/06/21 10:12:11;;;;;;;4.35;3.40;;;;;;;-145.79;50.31;76540.09;5284377;28;20115;-81
2023/06/21 10:14:42;;;;;;;4.32;3.92;;;;;;;-145.79;50.79;76544.34;5283848;28;20082;-81
2023/06/21 10:17:15;;;;;;;4.55;4.07;;;;;;;-145.79;52.26;76538.00;5284933;28;20024;-81
2023/06/21 10:19:47;;;;;;;6.20;4.50;;;;;;;-145.79;52.37;76533.75;5300067;28;20024;-80
2023/06/21 10:22:21;;;;;;;6.43;5.78;;;;;;;-145.79;53.00;76499.84;5304730;28;20051;-81
2023/06/21 10:24:56;;;;;;;5.55;5.05;;;;;;;-145.79;51.98;76508.31;5296297;28;20044;-81
2023/06/21 10:27:30;;;;;;;6.25;4.93;;;;;;;-145.79;51.04;76550.69;5284164;28;20101;-81
2023/06/21 10:30:02;;;;;;;3.78;3.47;;;;;;;-145.79;49.87;76531.63;5284311;28;20506;-81
2023/06/21 10:32:36;;;;;;;3.25;2.95;;;;;;;-145.79;49.67;76512.56;5284625;28;20039;-82
2023/06/21 10:35:15;;;;;;;3.88;3.33;;;;;;;-145.79;49.16;76491.38;5283922;28;20052;-78
2023/06/21 10:38:01;;;;;;;3.92;3.42;;;;;;;-145.79;48.85;76512.56;5284972;28;20025;-80
2023/06/21 10:40:35;;;;;;;4.88;4.38;;;;;;;-145.79;49.39;76512.56;5283979;28;20077;-82
2023/06/21 10:43:07;;;;;;;5.18;4.68;;;;;;;-145.79;50.10;76465.94;5300387;28;20073;-81
2023/06/21 10:45:40;;;;;;;41.47;37.60;;;;;;;-145.79;49.95;76474.41;5305298;28;20534;-80
2023/06/21 10:48:16;;;;;;;6.50;5.90;;;;;;;-145.79;50.28;76461.69;5303899;28;20029;-83
2023/06/21 10:50:48;;;;;;;6.00;5.10;;;;;;;-145.79;50.20;76455.34;5304793;28;20028;-80
2023/06/21 10:53:21;;;;;;;6.38;5.88;;;;;;;-145.79;49.57;76501.97;5306357;28;20031;-84
2023/06/21 10:55:53;;;;;;;6.18;5.55;;;;;;;-145.79;50.17;76489.25;5308806;28;20429;-85
2023/06/21 10:58:27;;;;;;;7.63;6.93;;;;;;;-145.79;50.36;76482.88;5309049;28;20028;-84
2023/06/21 11:01:01;;;;;;;24.15;22.00;;;;;;;-145.79;50.97;76482.88;5320712;28;20028;-82
2023/06/21 11:03:33;;;;;;;7.57;6.28;;;;;;;-145.79;51.21;76487.13;5308072;28;20044;-82
2023/06/21 11:06:29;;;;;;;6.95;6.25;;;;;;;-145.79;50.43;76470.19;5307435;28;20454;-81
2023/06/21 11:09:09;;;;;;;6.28;5.50;;;;;;;-145.79;49.07;76474.41;5304169;28;20024;-81
2023/06/21 11:11:51;;;;;;;5.90;5.30;;;;;;;-145.79;49.79;76440.50;5299395;28;20031;-81
2023/06/21 11:14:30;;;;;;;6.93;5.10;;;;;;;-145.79;49.07;76417.19;5295190;28;20021;-81
2023/06/21 11:17:09;;;;;;;5.20;4.70;;;;;;;-145.79;47.57;76427.78;5282633;28;20024;-81
2023/06/21 11:19:43;;;;;;;6.25;4.10;;;;;;;-145.79;47.65;76440.50;5283860;28;20077;-81
2023/06/21 11:22:17;;;;;;;4.95;4.50;;;;;;;-145.79;47.49;76436.28;5283419;28;20051;-82
2023/06/21 11:24:49;;;;;;;7.55;3.60;;;;;;;-145.79;47.64;76389.66;5283062;28;20095;-81
2023/06/21 11:27:22;;;;;;;4.57;3.80;;;;;;;-145.79;46.88;76402.38;5295331;28;20028;-81
2023/06/21 11:30:09;;;;;;;4.38;3.92;;;;;;;-145.79;46.14;76385.41;5305780;28;20020;-81
2023/06/21 11:32:53;;;;;;;4.53;4.13;;;;;;;-145.79;45.73;76385.41;5304887;28;20046;-81
2023/06/21 11:35:49;;;;;;;5.28;4.85;;;;;;;-145.79;46.31;76415.06;5305300;28;20050;-81
2023/06/21 11:38:20;;;;;;;5.95;5.43;;;;;;;-145.79;46.48;76423.56;5305614;28;20032;-81
2023/06/21 11:40:51;;;;;;;5.32;4.82;;;;;;;-145.79;46.90;76419.31;5305244;28;20035;-80
2023/06/21 11:43:22;;;;;;;5.45;4.90;;;;;;;-145.79;46.84;76415.06;5300854;28;20047;-80
2023/06/21 11:45:57;;;;;;;5.18;4.70;;;;;;;-145.79;46.67;76398.13;5283736;28;20115;-81
2023/06/21 11:48:32;;;;;;;4.75;4.35;;;;;;;-145.79;46.31;76387.53;5284212;28;20025;-81
2023/06/21 11:51:09;;;;;;;5.72;5.30;;;;;;;-145.79;46.39;76410.84;5284136;28;20024;-81
2023/06/21 11:53:43;;;;;;;9.68;8.80;;;;;;;-145.79;47.00;76410.84;5282650;28;20032;-82
2023/06/21 11:56:19;;;;;;;5.77;5.27;;;;;;;-145.79;46.92;76385.41;5283996;28;20027;-82
2023/06/21 11:58:51;;;;;;;5.95;5.43;;;;;;;-145.79;46.86;76372.69;5282829;28;20055;-81
2023/06/21 12:01:22;;;;;;;6.88;6.20;;;;;;;-145.79;46.69;76364.22;5301007;28;20028;-81
2023/06/21 12:04:00;;;;;;;7.40;5.15;;;;;;;-145.79;46.36;76338.78;5304358;28;20076;-82
2023/06/21 12:06:32;;;;;;;5.57;4.80;;;;;;;-145.79;46.25;76323.97;5287507;28;20105;-84
2023/06/21 12:09:03;;;;;;;6.18;5.57;;;;;;;-145.79;45.14;76374.81;5287378;28;20139;-81
2023/06/21 12:11:35;;;;;;;6.88;6.22;;;;;;;-145.79;45.89;76359.97;5287607;28;20579;-82
2023/06/21 12:14:06;;;;;;;5.10;4.57;;;;;;;-145.79;45.12;76326.06;5287613;28;20107;-82
2023/06/21 12:16:40;;;;;;;6.35;4.95;;;;;;;-145.79;45.06;76296.41;5308193;28;20427;-84
2023/06/21 12:19:11;;;;;;;8.68;7.95;;;;;;;-145.79;44.31;76315.47;5290224;28;20556;-80
2023/06/21 12:21:43;;;;;;;5.38;4.70;;;;;;;-145.79;44.92;76311.25;5286612;28;20139;-81
2023/06/21 12:24:27;;;;;;;5.45;4.65;;;;;;;-145.79;44.97;76307.00;5287686;28;20040;-80
2023/06/21 12:27:00;;;;;;;4.57;4.18;;;;;;;-145.79;44.34;76319.72;5287473;28;20028;-80
2023/06/21 12:29:32;;;;;;;4.90;4.15;;;;;;;-145.79;44.48;76323.97;5288319;28;20096;-82
2023/06/21 12:32:03;;;;;;;4.50;4.10;;;;;;;-145.79;44.20;76347.25;5289020;28;20520;-80
2023/06/21 12:34:38;;;;;;;4.07;3.67;;;;;;;-145.79;43.65;76355.75;5298589;28;20028;-81
2023/06/21 12:37:17;;;;;;;4.50;4.13;;;;;;;-145.79;44.31;76298.53;5308799;28;20024;-81
2023/06/21 12:39:52;;;;;;;3.50;2.95;;;;;;;-145.79;42.94;76292.16;5310553;28;20491;-81
2023/06/21 12:42:29;;;;;;;4.38;2.70;;;;;;;-145.79;42.56;76266.75;5301967;28;20094;-80
2023/06/21 12:45:00;;;;;;;11.15;10.05;;;;;;;-145.79;40.88;76277.34;5291229;28;20020;-80
2023/06/21 12:47:32;;;;;;;4.85;4.35;;;;;;;-145.79;40.47;76281.56;5289668;28;20062;-81
2023/06/21 12:50:04;;;;;;;4.03;3.17;;;;;;;-145.79;41.48;76251.91;5288259;28;20020;-79
2023/06/21 12:52:38;;;;;;;3.55;3.20;;;;;;;-145.79;41.26;76241.31;5289475;28;20510;-81
2023/06/21 12:55:15;;;;;;;6.97;5.30;;;;;;;-145.79;41.29;76220.13;5292073;28;20032;-79
2023/06/21 12:57:46;;;;;;;5.72;3.45;;;;;;;-145.79;40.79;76239.19;5289906;28;20290;-81
2023/06/21 13:00:18;;;;;;;5.70;3.30;;;;;;;-145.79;41.43;76234.97;5285879;28;20025;-81
2023/06/21 13:02:49;;;;;;;6.05;4.30;;;;;;;-145.79;41.55;76224.38;5284621;28;20123;-78
2023/06/21 13:05:20;;;;;;;5.68;3.10;;;;;;;-145.79;42.36;76256.16;5285231;28;20043;-80
2023/06/21 13:07:52;;;;;;;6.35;4.32;;;;;;;-145.79;41.50;76249.78;5285570;28;20025;-80
2023/06/21 13:10:23;;;;;;;4.70;3.00;;;;;;;-145.79;40.56;76245.56;5284909;28;20025;-80
2023/06/21 13:12:54;;;;;;;5.03;3.40;;;;;;;-145.79;40.64;76207.41;5285255;28;20021;-80
2023/06/21 13:15:26;;;;;;;5.00;3.35;;;;;;;-145.79;40.56;76256.16;5285419;28;20078;-77
2023/06/21 13:17:57;;;;;;;6.65;3.80;;;;;;;-145.79;40.95;76228.59;5283414;28;20363;-78
2023/06/21 13:20:36;;;;;;;4.10;3.70;;;;;;;-145.79;40.47;76220.13;5285363;28;20025;-79
2023/06/21 13:23:07;;;;;;;7.07;3.53;;;;;;;-145.79;40.92;76211.66;5284359;28;20052;-79
2023/06/21 13:25:39;;;;;;;7.43;3.85;;;;;;;-145.79;40.69;76192.56;5291276;28;20034;-79
2023/06/21 13:28:13;;;;;;;12.90;11.68;;;;;;;-145.79;39.67;76181.97;5306906;28;20029;-80
2023/06/21 13:30:44;;;;;;;5.90;5.38;;;;;;;-145.79;38.36;76201.06;5307101;28;20027;-82
2023/06/21 13:33:16;;;;;;;3.85;3.28;;;;;;;-145.79;39.08;76237.06;5307831;28;20460;-81
2023/06/21 13:35:47;;;;;;;3.28;2.80;;;;;;;-145.79;39.05;76222.25;5307375;28;20097;-81
2023/06/21 13:38:21;;;;;;;3.25;3.05;;;;;;;-145.79;39.50;76228.59;5305980;28;20107;-79
2023/06/21 13:40:52;;;;;;;5.10;2.80;;;;;;;-145.79;39.53;76194.69;5306375;28;20028;-79
2023/06/21 13:43:23;;;;;;;3.15;2.95;;;;;;;-145.79;38.86;76181.97;5293672;28;20077;-78
2023/06/21 13:45:54;;;;;;;5.22;3.63;;;;;;;-145.79;38.76;76139.59;5284363;28;20024;-78
2023/06/21 13:48:26;;;;;;;5.63;4.40;;;;;;;-145.79;39.45;76112.06;5285067;28;20094;-79
2023/06/21 13:50:57;;;;;;;4.70;4.30;;;;;;;-145.79;39.32;76122.66;5284092;28;20111;-78
2023/06/21 13:53:28;;;;;;;3.75;3.33;;;;;;;-145.79;38.85;76141.72;5285047;28;20107;-78
2023/06/21 13:56:00;;;;;;;3.80;3.05;;;;;;;-145.79;38.15;76109.94;5269255;28;20073;-78
2023/06/21 13:58:31;;;;;;;6.85;6.22;;;;;;;-145.79;37.73;76080.28;5285784;28;20395;-82
2023/06/21 14:01:02;;;;;;;5.22;3.35;;;;;;;-145.79;38.28;76059.09;5305407;28;20037;-79
2023/06/21 14:03:34;;;;;;;4.20;3.50;;;;;;;-145.79;37.33;76052.72;5308211;28;20020;-80
2023/06/21 14:06:08;;;;;;;4.03;2.95;;;;;;;-145.79;36.71;76040.00;5308656;28;20069;-81
2023/06/21 14:08:39;;;;;;;4.40;3.88;;;;;;;-145.79;37.87;76080.28;5308601;28;20047;-78
2023/06/21 14:11:10;;;;;;;63.85;58.75;;;;;;;-145.79;38.39;76107.81;5307019;28;20047;-82
2023/06/21 14:13:41;;;;;;;5.70;5.20;;;;;;;-145.79;37.81;76124.78;5308314;28;20055;-81
2023/06/21 14:16:13;;;;;;;4.85;3.90;;;;;;;-145.79;37.31;76109.94;5308704;28;20027;-80
2023/06/21 14:18:46;;;;;;;4.55;3.70;;;;;;;-145.79;37.04;76099.34;5287420;28;20476;-80
2023/06/21 14:21:20;;;;;;;3.88;3.25;;;;;;;-145.79;37.16;76135.38;5287458;28;20067;-83
2023/06/21 14:23:53;;;;;;;3.20;2.90;;;;;;;-145.79;37.25;76181.97;5287827;28;20089;-82
2023/06/21 14:26:24;;;;;;;6.93;3.35;;;;;;;-145.79;37.52;76192.56;5286279;28;20147;-80
2023/06/21 14:28:58;;;;;;;3.22;2.92;;;;;;;-145.79;38.02;76135.38;5286351;28;20107;-82
2023/06/21 14:31:31;;;;;;;3.80;3.45;;;;;;;-145.79;37.69;76084.50;5286462;28;20388;-82
2023/06/21 14:34:03;;;;;;;3.92;2.83;;;;;;;-145.79;37.33;76046.38;5296321;28;20057;-82
2023/06/21 14:36:34;;;;;;;3.90;3.58;;;;;;;-145.79;36.88;76033.66;5310058;28;20059;-81
2023/06/21 14:39:07;;;;;;;5.03;3.50;;;;;;;-145.79;36.72;76014.59;5309851;28;20028;-82
2023/06/21 14:41:39;;;;;;;4.32;3.83;;;;;;;-145.79;36.53;75999.75;5303602;28;20027;-80
2023/06/21 14:44:14;;;;;;;3.72;3.10;;;;;;;-145.79;36.63;75997.63;5287813;28;20088;-79
2023/06/21 14:46:46;;;;;;;4.65;4.05;;;;;;;-145.79;36.01;75999.75;5286856;28;20042;-80
2023/06/21 14:49:17;;;;;;;4.80;3.50;;;;;;;-145.79;35.73;75974.31;5287084;28;20048;-81
2023/06/21 14:51:51;;;;;;;3.65;3.35;;;;;;;-145.79;35.59;75967.97;5303802;28;20036;-82
2023/06/21 14:54:22;;;;;;;3.63;3.30;;;;;;;-145.79;35.73;75938.31;5308247;28;20134;-82
2023/06/21 14:56:54;;;;;;;4.75;3.60;;;;;;;-145.79;35.52;76006.09;5308262;28;20353;-82
2023/06/21 14:59:25;;;;;;;13.45;12.30;;;;;;;-145.79;35.45;75989.16;5310087;28;20025;-82
2023/06/21 15:02:03;;;;;;;23.23;21.05;;;;;;;-145.79;35.58;75999.75;5308616;28;20472;-82
2023/06/21 15:04:38;;;;;;;4.05;3.65;;;;;;;-145.79;35.24;76004.00;5308995;28;20020;-82
2023/06/21 15:07:15;;;;;;;4.35;3.25;;;;;;;-145.79;35.49;76020.94;5305996;28;20036;-82
2023/06/21 15:09:47;;;;;;;4.65;3.28;;;;;;;-145.79;35.65;76042.13;5307065;28;20055;-81
2023/06/21 15:12:18;;;;;;;3.63;3.30;;;;;;;-145.79;35.45;76029.41;5306367;28;20032;-80
2023/06/21 15:14:49;;;;;;;4.00;3.10;;;;;;;-145.79;35.98;76008.22;5308019;28;20032;-81
2023/06/21 15:17:20;;;;;;;3.25;2.95;;;;;;;-145.79;35.90;76008.22;5307079;28;20024;-81
2023/06/21 15:19:52;;;;;;;5.50;3.40;;;;;;;-145.79;35.69;76046.38;5305915;28;20053;-81
2023/06/21 15:22:23;;;;;;;7.05;6.35;;;;;;;-145.79;35.62;76088.75;5309141;28;20123;-81
2023/06/21 15:24:55;;;;;;;4.30;3.67;;;;;;;-145.79;36.21;76046.38;5302423;28;20078;-80
2023/06/21 15:27:26;;;;;;;5.93;3.30;;;;;;;-145.79;35.83;76065.44;5289992;28;20040;-81
2023/06/21 15:29:57;;;;;;;4.88;3.20;;;;;;;-145.79;35.87;76092.97;5290220;28;20042;-80
2023/06/21 15:32:28;;;;;;;4.18;3.25;;;;;;;-145.79;35.70;76092.97;5283147;28;20494;-80
2023/06/21 15:35:00;;;;;;;3.92;3.45;;;;;;;-145.79;35.62;76054.84;5283931;28;20098;-81
2023/06/21 15:37:38;;;;;;;3.90;3.60;;;;;;;-145.79;35.61;76046.38;5283127;28;20058;-80
2023/06/21 15:40:13;;;;;;;3.22;2.75;;;;;;;-145.79;35.48;76018.81;5283303;28;20379;-78
2023/06/21 15:42:44;;;;;;;5.28;3.42;;;;;;;-145.79;35.36;76029.41;5297799;28;20046;-76
2023/06/21 15:45:17;;;;;;;5.80;4.55;;;;;;;-145.79;35.12;76029.41;5307458;28;20020;-76
2023/06/21 15:47:48;;;;;;;4.32;3.50;;;;;;;-145.79;35.19;76027.28;5307933;28;20032;-75
2023/06/21 15:50:20;;;;;;;3.88;2.80;;;;;;;-145.79;35.16;76033.66;5308144;28;20142;-76
2023/06/21 15:52:51;;;;;;;3.30;2.92;;;;;;;-145.79;35.35;76042.13;5308711;28;20030;-78
2023/06/21 15:55:23;;;;;;;4.22;3.08;;;;;;;-145.79;35.40;76029.41;5308279;28;20040;-78
2023/06/21 15:57:54;;;;;;;4.07;2.90;;;;;;;-145.79;35.33;76035.78;5306052;28;20028;-79
2023/06/21 16:00:26;;;;;;;3.20;2.83;;;;;;;-145.79;35.11;76027.28;5305597;28;20036;-79
2023/06/21 16:02:57;;;;;;;5.53;3.33;;;;;;;-145.79;35.14;76042.13;5308568;28;20032;-78
2023/06/21 16:05:28;;;;;;;7.18;6.47;;;;;;;-145.79;35.10;76040.00;5307191;28;20020;-77
2023/06/21 16:08:12;;;;;;;3.90;3.47;;;;;;;-145.79;35.72;76056.97;5307180;28;20024;-79
2023/06/21 16:10:43;;;;;;;3.95;3.55;;;;;;;-145.79;35.42;76086.63;5307384;28;20028;-77
2023/06/21 16:13:14;;;;;;;3.65;3.00;;;;;;;-145.79;35.62;76086.63;5299405;28;20028;-79
2023/06/21 16:15:46;;;;;;;17.23;15.90;;;;;;;-145.79;35.61;76061.19;5286364;28;20523;-78
2023/06/21 16:18:17;;;;;;;4.35;3.40;;;;;;;-145.79;35.57;76061.19;5285967;28;20533;-79
2023/06/21 16:20:49;;;;;;;4.38;3.97;;;;;;;-145.79;35.56;76056.97;5284941;28;20023;-79
2023/06/21 16:23:20;;;;;;;6.50;4.00;;;;;;;-145.79;35.70;76042.13;5285719;28;20392;-79
2023/06/21 16:25:53;;;;;;;6.35;4.43;;;;;;;-145.79;35.82;76063.31;5267125;28;20611;-79
2023/06/21 16:28:24;;;;;;;3.78;3.38;;;;;;;-145.79;35.48;76029.41;5286302;28;20024;-79
2023/06/21 16:30:55;;;;;;;4.27;3.33;;;;;;;-145.79;34.70;76031.53;5286221;28;20025;-79
2023/06/21 16:33:29;;;;;;;4.60;3.28;;;;;;;-145.79;34.29;76042.13;5285445;28;20063;-78
2023/06/21 16:36:03;;;;;;;4.30;3.17;;;;;;;-145.79;35.23;76059.09;5285919;28;20048;-79
2023/06/21 16:38:34;;;;;;;4.43;4.03;;;;;;;-145.79;36.02;76025.19;5285976;28;20487;-79
2023/06/21 16:41:06;;;;;;;6.20;5.60;;;;;;;-145.79;36.73;76046.38;5286889;28;20298;-79
2023/06/21 16:43:37;;;;;;;7.00;6.47;;;;;;;-145.79;36.79;76076.03;5287114;28;20082;-81
2023/06/21 16:46:08;;;;;;;7.45;6.75;;;;;;;-145.79;36.88;76082.38;5287627;28;20023;-79
2023/06/21 16:48:41;;;;;;;6.45;5.85;;;;;;;-145.79;37.20;76105.69;5287054;28;20087;-80
2023/06/21 16:51:13;;;;;;;6.25;5.65;;;;;;;-145.79;37.17;76122.66;5287368;28;20082;-79
2023/06/21 16:53:45;;;;;;;7.45;6.85;;;;;;;-145.79;37.83;76165.03;5286383;28;20110;-80
